Time;durP1;ratioP1;P1;durP2;ratioP2;P2;SDS_P1;SDS_P2;PMS_P1;PMS_P2;Temp;Humidity;BMP_temperature;BMP_pressure;BME280_temperature;BME280_humidity;BME280_pressure;Samples;Min_cycle;Max_cycle;Signal;HPM_P1;HPM_P2
2023/03/26 09:48:22;;;;;;;;;0.00;0.00;;;;;11.55;59.01;100105.75;6224543;22;46295;-70
2023/03/26 09:51:16;;;;;;;;;0.00;0.00;;;;;11.53;59.43;100104.84;6277695;22;45073;-71
2023/03/26 09:53:54;;;;;;;;;1.00;0.00;;;;;11.53;59.16;100103.97;6277455;22;45280;-70
2023/03/26 09:56:42;;;;;;;;;1.33;0.00;;;;;11.17;59.79;100048.09;6274984;22;45421;-71
2023/03/26 09:59:13;;;;;;;;;0.00;0.00;;;;;11.43;59.70;100095.94;6275433;22;45675;-71
2023/03/26 10:02:00;;;;;;;;;0.00;0.00;;;;;11.52;60.08;100121.59;6275362;22;46897;-71
2023/03/26 10:04:51;;;;;;;;;0.50;0.00;;;;;11.53;59.69;100122.47;6275379;22;45344;-71
2023/03/26 10:07:31;;;;;;;;;1.00;0.00;;;;;11.52;59.36;100124.25;6277188;22;45173;-71
2023/03/26 10:10:17;;;;;;;;;0.75;0.00;;;;;11.50;59.12;100123.34;6277378;22;45242;-71
2023/03/26 10:12:47;;;;;;;;;0.00;0.00;;;;;11.38;59.55;100113.53;6277318;22;45578;-71
2023/03/26 10:15:42;;;;;;;;;0.00;0.00;;;;;11.47;59.24;100138.31;6275713;22;45211;-71
2023/03/26 10:18:16;;;;;;;;;0.00;0.00;;;;;11.52;59.37;100141.91;6277660;22;45215;-71
2023/03/26 10:21:05;;;;;;;;;2.75;0.50;;;;;11.56;59.18;100154.28;6274303;22;45454;-71
2023/03/26 10:23:39;;;;;;;;;0.00;0.00;;;;;11.64;58.72;100145.53;6275434;22;47260;-71
2023/03/26 10:26:33;;;;;;;;;1.00;0.00;;;;;11.71;59.12;100135.03;6278550;22;45193;-71
2023/03/26 10:29:23;;;;;;;;;1.00;0.00;;;;;11.83;58.53;100136.00;6277785;22;45394;-71
2023/03/26 10:32:14;;;;;;;;;0.00;0.00;;;;;11.96;58.14;100138.78;6278000;22;45300;-70
2023/03/26 10:34:54;;;;;;;;;0.00;0.00;;;;;12.18;58.38;100155.72;6278089;22;46588;-71
2023/03/26 10:37:44;;;;;;;;;0.00;0.00;;;;;12.32;58.05;100141.72;6276200;22;45210;-70
2023/03/26 10:40:30;;;;;;;;;0.00;0.00;;;;;12.62;57.84;100142.75;6276300;22;45342;-71
2023/03/26 10:43:14;;;;;;;;;0.00;0.00;;;;;12.77;57.43;100160.50;6275989;22;45310;-71
2023/03/26 10:46:08;;;;;;;;;1.00;0.00;;;;;12.82;57.27;100152.59;6275953;22;45383;-70
2023/03/26 10:49:04;;;;;;;;;0.00;0.00;;;;;12.83;56.33;100157.03;6275100;22;45241;-72
2023/03/26 10:51:50;;;;;;;;;1.00;0.00;;;;;12.95;56.62;100143.81;6274345;22;45272;-72
2023/03/26 10:54:33;;;;;;;;;1.67;1.00;;;;;13.42;56.29;100151.94;6276648;22;45230;-72
2023/03/26 10:57:02;;;;;;;;;0.00;0.00;;;;;13.76;55.42;100148.47;6277059;22;46184;-72
2023/03/26 10:59:28;;;;;;;;;0.00;0.00;;;;;13.98;56.22;100154.69;6277188;22;45584;-72
2023/03/26 11:02:14;;;;;;;;;1.33;0.67;;;;;14.02;54.51;100137.84;6275262;22;45256;-72
2023/03/26 11:05:00;;;;;;;;;3.00;0.33;;;;;14.08;55.19;100145.78;6276417;22;45662;-71
2023/03/26 11:07:40;;;;;;;;;1.00;0.00;;;;;14.06;54.68;100142.28;6273487;22;47317;-72
2023/03/26 11:10:24;;;;;;;;;0.00;0.00;;;;;14.29;54.94;100143.13;6277081;22;45291;-71
2023/03/26 11:12:53;;;;;;;;;2.00;0.00;;;;;14.53;53.83;100142.22;6277445;22;45224;-72
2023/03/26 11:15:50;;;;;;;;;0.00;0.00;;;;;14.80;52.32;100143.03;6276661;22;45245;-70
2023/03/26 11:18:52;;;;;;;;;0.00;0.00;;;;;14.87;52.62;100107.53;6222298;22;45692;-71
2023/03/26 11:21:32;;;;;;;;;0.00;0.00;;;;;15.00;52.97;100143.84;6276650;22;45554;-72
2023/03/26 11:24:19;;;;;;;;;0.00;0.00;;;;;14.89;51.51;100140.34;6274605;22;45295;-71
2023/03/26 11:26:55;;;;;;;;;0.00;0.00;;;;;14.68;51.08;100137.78;6275085;22;47098;-72
2023/03/26 11:29:43;;;;;;;;;0.67;0.67;;;;;14.41;51.43;100125.38;6275126;22;47589;-71
2023/03/26 11:32:12;;;;;;;;;0.00;0.00;;;;;14.47;52.61;100130.69;6275656;22;45544;-71
2023/03/26 11:35:00;;;;;;;;;1.00;0.00;;;;;14.49;52.09;100105.84;6276498;22;45248;-71
2023/03/26 11:37:37;;;;;;;;;0.00;0.00;;;;;14.98;51.93;100137.66;6274952;22;45886;-71
2023/03/26 11:40:27;;;;;;;;;1.00;0.33;;;;;15.19;52.46;100133.13;6275093;22;46746;-72
2023/03/26 11:42:59;;;;;;;;;2.00;1.00;;;;;15.36;51.66;100133.00;6276571;22;45321;-71
2023/03/26 11:45:29;;;;;;;;;1.00;1.00;;;;;15.45;51.23;100139.16;6276880;22;45193;-71
2023/03/26 11:48:02;;;;;;;;;0.67;0.00;;;;;15.35;50.47;100126.81;6274929;22;45347;-71
2023/03/26 11:50:34;;;;;;;;;0.33;0.00;;;;;15.39;50.45;100136.53;6274778;22;47193;-71
2023/03/26 11:53:12;;;;;;;;;0.00;0.00;;;;;15.21;49.57;100139.31;6276822;22;45314;-71
2023/03/26 11:55:47;;;;;;;;;0.00;0.00;;;;;15.20;49.51;100137.53;6275339;22;45253;-71
2023/03/26 11:58:28;;;;;;;;;0.00;0.00;;;;;15.09;49.17;100112.75;6274644;22;46777;-71
2023/03/26 12:00:54;;;;;;;;;0.00;0.00;;;;;15.28;49.15;100145.47;6277186;22;46546;-71
2023/03/26 12:03:20;;;;;;;;;0.00;0.00;;;;;15.45;48.45;100133.84;6275601;22;45239;-71
2023/03/26 12:05:49;;;;;;;;;0.00;0.00;;;;;15.59;47.10;100123.09;6277484;22;45347;-71
2023/03/26 12:08:21;;;;;;;;;0.00;0.00;;;;;15.83;47.22;100123.84;6276631;22;45160;-72
2023/03/26 12:10:58;;;;;;;;;0.33;0.00;;;;;16.19;47.39;100129.72;6276755;22;45340;-71
2023/03/26 12:13:32;;;;;;;;;0.00;0.00;;;;;16.11;46.52;100074.72;6276737;22;45222;-72
2023/03/26 12:16:20;;;;;;;;;1.00;0.00;;;;;16.57;44.81;100126.69;6274052;22;45328;-71
2023/03/26 12:19:02;;;;;;;;;0.00;0.00;;;;;16.70;44.77;100131.00;6274743;22;45695;-72
2023/03/26 12:21:27;;;;;;;;;1.00;0.00;;;;;16.82;44.24;100118.44;6275990;22;46433;-72
2023/03/26 12:23:54;;;;;;;;;0.00;0.00;;;;;16.98;44.13;100123.56;6276311;22;45258;-72
2023/03/26 12:26:34;;;;;;;;;0.00;0.00;;;;;17.18;43.67;100115.28;6276433;22;45255;-72
2023/03/26 12:29:17;;;;;;;;;0.00;0.00;;;;;17.17;44.92;100093.97;6276624;22;45231;-72
2023/03/26 12:31:55;;;;;;;;;0.00;0.00;;;;;17.33;45.16;100110.63;6274346;22;47040;-72
2023/03/26 12:34:29;;;;;;;;;0.00;0.00;;;;;17.01;42.41;100114.63;6276501;22;45208;-72
2023/03/26 12:36:56;;;;;;;;;0.00;0.00;;;;;17.04;43.80;100132.41;6275304;22;45157;-71
2023/03/26 12:39:35;;;;;;;;;0.00;0.00;;;;;16.79;43.81;100106.00;6275626;22;45546;-71
2023/03/26 12:42:01;;;;;;;;;0.00;0.00;;;;;16.53;44.05;100107.16;6276522;22;45308;-72
2023/03/26 12:44:33;;;;;;;;;0.00;0.00;;;;;16.21;44.87;100091.50;6277815;22;45424;-73
2023/03/26 12:47:30;;;;;;;;;2.00;0.00;;;;;16.15;44.96;100101.34;6275696;22;45257;-72
2023/03/26 12:49:57;;;;;;;;;1.00;0.00;;;;;16.13;45.26;100098.69;6275580;22;45326;-73
2023/03/26 12:52:51;;;;;;;;;0.00;0.00;;;;;16.26;44.53;100097.66;6275099;22;46079;-73
2023/03/26 12:55:50;;;;;;;;;2.00;0.67;;;;;16.61;45.29;100090.16;6275997;22;45412;-73
2023/03/26 12:58:15;;;;;;;;;0.00;0.00;;;;;16.83;44.87;100101.50;6277487;22;45323;-73
2023/03/26 13:01:24;;;;;;;;;0.00;0.00;;;;;16.94;45.13;100080.91;6278279;22;45418;-72
2023/03/26 13:04:02;;;;;;;;;0.00;0.00;;;;;17.10;44.45;100050.41;6266386;22;45236;-73
2023/03/26 13:06:33;;;;;;;;;0.00;0.00;;;;;17.50;44.39;100078.31;6277213;22;45235;-72
2023/03/26 13:09:32;;;;;;;;;0.00;0.00;;;;;17.40;43.09;100074.91;6277894;22;45215;-76
2023/03/26 13:12:01;;;;;;;;;0.00;0.00;;;;;17.48;42.53;100078.34;6245096;22;45604;-76
2023/03/26 13:14:38;;;;;;;;;1.00;0.00;;;;;17.29;42.45;100067.06;6277171;22;45472;-76
2023/03/26 13:17:34;;;;;;;;;0.00;0.00;;;;;17.26;43.53;100068.91;6277703;22;45199;-75
2023/03/26 13:20:10;;;;;;;;;0.00;0.00;;;;;17.09;43.06;100090.50;6278362;22;45220;-76
2023/03/26 13:22:44;;;;;;;;;17.67;17.67;;;;;16.84;43.41;100095.28;6276946;22;45202;-75
2023/03/26 13:25:20;;;;;;;;;0.00;0.00;;;;;16.60;43.17;100083.94;6278122;22;45238;-75
2023/03/26 13:27:55;;;;;;;;;0.00;0.00;;;;;16.46;42.63;100078.78;6278640;22;45096;-75
2023/03/26 13:30:30;;;;;;;;;1.00;1.00;;;;;16.25;42.66;100087.03;6278114;22;45086;-75
2023/03/26 13:33:01;;;;;;;;;1.67;1.67;;;;;16.09;43.03;100078.28;6277383;22;45244;-75
2023/03/26 13:35:45;;;;;;;;;54.00;43.50;;;;;16.01;44.12;100090.81;6277478;22;45343;-75
2023/03/26 13:38:42;;;;;;;;;0.00;0.00;;;;;15.81;45.47;100094.53;6275495;22;45854;-72
2023/03/26 13:41:28;;;;;;;;;2.00;2.00;;;;;15.63;45.79;100098.22;6278619;22;45219;-73
2023/03/26 13:44:16;;;;;;;;;7.67;7.67;;;;;15.69;45.83;100091.09;6275681;22;46083;-73
2023/03/26 13:46:47;;;;;;;;;34.50;31.50;;;;;15.89;46.34;100086.47;6276938;22;46440;-73
2023/03/26 13:49:16;;;;;;;;;0.67;0.67;;;;;16.22;45.86;100095.94;6275942;22;45160;-73
2023/03/26 13:52:04;;;;;;;;;0.67;0.67;;;;;16.52;45.89;100115.16;6275004;22;45301;-73
2023/03/26 13:54:48;;;;;;;;;0.00;0.00;;;;;16.69;45.42;100078.53;6276054;22;45501;-73
2023/03/26 13:57:22;;;;;;;;;0.67;0.67;;;;;16.90;44.91;100087.19;6275573;22;45310;-73
2023/03/26 13:59:57;;;;;;;;;0.00;0.00;;;;;16.94;44.99;100103.16;6275918;22;45275;-74
2023/03/26 14:02:22;;;;;;;;;0.00;0.00;;;;;16.81;45.03;100098.00;6277450;22;45370;-73
2023/03/26 14:04:52;;;;;;;;;1.00;0.00;;;;;16.58;44.71;100098.22;6277145;22;45294;-73
2023/03/26 14:07:35;;;;;;;;;0.00;0.00;;;;;16.31;46.01;100116.28;6277585;22;45260;-73
2023/03/26 14:10:08;;;;;;;;;0.00;0.00;;;;;15.99;50.36;100129.91;6276601;22;45303;-73
2023/03/26 14:12:53;;;;;;;;;1.00;0.00;;;;;15.60;48.85;100107.97;6277114;22;45389;-73
2023/03/26 14:15:27;;;;;;;;;0.33;0.00;;;;;15.39;50.35;100117.00;6277834;22;44684;-73
2023/03/26 14:18:12;;;;;;;;;0.00;0.00;;;;;15.07;50.08;100103.88;6273804;22;47944;-73
2023/03/26 14:20:53;;;;;;;;;0.00;0.00;;;;;14.91;53.05;100124.38;6276405;22;45392;-73
2023/03/26 14:23:41;;;;;;;;;0.00;0.00;;;;;14.47;52.50;100083.69;6277403;22;45384;-73
2023/03/26 14:26:25;;;;;;;;;1.00;0.00;;;;;14.39;53.23;100106.75;6273742;22;45731;-73
2023/03/26 14:28:50;;;;;;;;;0.00;0.00;;;;;14.32;54.21;100132.50;6277364;22;46062;-73
2023/03/26 14:31:51;;;;;;;;;0.67;0.00;;;;;14.06;52.74;100139.63;6275086;22;45453;-73
2023/03/26 14:34:25;;;;;;;;;0.67;0.33;;;;;13.95;54.44;100149.34;6227331;22;45477;-73
2023/03/26 14:37:06;;;;;;;;;1.00;1.00;;;;;13.86;53.99;100134.28;6277476;22;45277;-72
2023/03/26 14:39:59;;;;;;;;;0.00;0.00;;;;;13.95;55.67;100154.66;6275340;22;46727;-73
2023/03/26 14:42:56;;;;;;;;;1.00;1.00;;;;;13.98;55.89;100150.25;6277463;22;45200;-73
2023/03/26 14:45:43;;;;;;;;;1.00;0.00;;;;;14.17;55.35;100139.59;6275799;22;45303;-72
2023/03/26 14:48:32;;;;;;;;;0.00;0.00;;;;;14.46;54.87;100150.19;6275972;22;45581;-73
2023/03/26 14:51:20;;;;;;;;;0.00;0.00;;;;;14.60;54.28;100147.53;6274210;22;46706;-73
2023/03/26 14:53:59;;;;;;;;;0.00;0.00;;;;;14.50;53.77;100134.22;6217234;22;45311;-73
2023/03/26 14:56:28;;;;;;;;;0.00;0.00;;;;;14.53;54.59;100154.63;6301589;22;45269;-73
2023/03/26 14:59:18;;;;;;;;;0.00;0.00;;;;;14.44;53.73;100151.97;6274399;22;45700;-73
2023/03/26 15:01:49;;;;;;;;;0.00;0.00;;;;;14.23;54.28;100156.44;6276937;22;46519;-73
2023/03/26 15:04:33;;;;;;;;;0.00;0.00;;;;;14.06;53.98;100158.22;6277662;22;45191;-73
2023/03/26 15:07:14;;;;;;;;;0.00;0.00;;;;;13.84;53.95;100163.53;6277397;22;45557;-73
2023/03/26 15:09:48;;;;;;;;;0.00;0.00;;;;;13.69;53.31;100171.47;6274661;22;45612;-73
2023/03/26 15:12:35;;;;;;;;;0.00;0.00;;;;;13.58;53.44;100171.47;6277443;22;45544;-73
2023/03/26 15:15:23;;;;;;;;;0.00;0.00;;;;;13.54;53.00;100179.41;6274720;22;45149;-73
2023/03/26 15:17:58;;;;;;;;;0.00;0.00;;;;;13.40;53.23;100177.59;6276018;22;45199;-73
2023/03/26 15:20:41;;;;;;;;;0.00;0.00;;;;;13.35;53.77;100179.34;6276630;22;45564;-73
2023/03/26 15:23:31;;;;;;;;;0.00;0.00;;;;;13.31;53.85;100176.69;6277217;22;45256;-72
2023/03/26 15:26:35;;;;;;;;;0.00;0.00;;;;;13.30;53.17;100191.72;6274970;22;45173;-73
2023/03/26 15:29:02;;;;;;;;;0.00;0.00;;;;;13.36;53.25;100186.44;6277118;22;45252;-72
2023/03/26 15:31:29;;;;;;;;;0.00;0.00;;;;;13.39;53.14;100186.47;6277315;22;45312;-72
2023/03/26 15:34:13;;;;;;;;;0.00;0.00;;;;;13.52;53.14;100189.13;6274288;22;46838;-73
2023/03/26 15:37:21;;;;;;;;;0.00;0.00;;;;;13.39;52.82;100161.69;6277549;22;45262;-72
2023/03/26 15:40:08;;;;;;;;;0.00;0.00;;;;;13.42;51.87;100178.50;6182961;23;45337;-74
2023/03/26 15:42:58;;;;;;;;;0.00;0.00;;;;;13.56;52.32;100209.53;6270197;22;44771;-73
2023/03/26 15:45:34;;;;;;;;;0.33;0.00;;;;;13.47;52.09;100221.00;6272613;22;46963;-73
2023/03/26 15:48:11;;;;;;;;;0.00;0.00;;;;;13.41;52.15;100219.22;6273252;22;45367;-73
2023/03/26 15:50:52;;;;;;;;;1.33;0.00;;;;;13.36;52.37;100220.97;6272707;22;45300;-73
2023/03/26 15:53:38;;;;;;;;;0.00;0.00;;;;;13.29;52.95;100239.50;6276646;22;45658;-72
2023/03/26 15:56:11;;;;;;;;;0.00;0.00;;;;;13.18;53.43;100240.28;6277698;22;45276;-73
2023/03/26 15:58:47;;;;;;;;;2.00;0.00;;;;;13.03;54.41;100247.31;6277177;22;45383;-72
2023/03/26 16:01:26;;;;;;;;;0.00;0.00;;;;;12.91;54.46;100262.28;6277632;22;45354;-73
2023/03/26 16:04:25;;;;;;;;;0.00;0.00;;;;;12.65;55.08;100247.94;6276094;22;45417;-74
2023/03/26 16:07:14;;;;;;;;;0.00;0.00;;;;;12.53;54.70;100259.34;6275166;22;45656;-74
2023/03/26 16:09:46;;;;;;;;;0.00;0.00;;;;;12.51;54.74;100279.66;6276025;22;45302;-73
2023/03/26 16:12:11;;;;;;;;;0.00;0.00;;;;;12.40;55.72;100292.81;6279966;22;45109;-73
2023/03/26 16:14:45;;;;;;;;;0.00;0.00;;;;;12.15;55.54;100262.56;6280795;22;45299;-73
2023/03/26 16:17:56;;;;;;;;;0.00;0.00;;;;;12.24;55.98;100304.19;6278041;22;47113;-73
2023/03/26 16:20:31;;;;;;;;;0.00;0.00;;;;;12.15;56.68;100296.13;6256412;22;44707;-73
2023/03/26 16:23:05;;;;;;;;;1.33;0.00;;;;;11.89;57.27;100278.22;6280548;22;45475;-73
2023/03/26 16:25:32;;;;;;;;;7.25;5.50;;;;;12.04;57.89;100307.53;6280603;22;45278;-73
2023/03/26 16:28:17;;;;;;;;;1.00;0.00;;;;;12.00;59.33;100316.28;6278190;22;47880;-74
2023/03/26 16:30:44;;;;;;;;;2.50;2.00;;;;;11.94;58.46;100308.28;6280339;22;45233;-74
2023/03/26 16:33:17;;;;;;;;;4.50;2.00;;;;;11.80;59.76;100297.50;6279637;22;45231;-73
2023/03/26 16:36:03;;;;;;;;;4.00;3.00;;;;;11.71;61.27;100300.06;6279977;22;45679;-73
2023/03/26 16:38:49;;;;;;;;;3.00;1.50;;;;;11.69;59.72;100309.72;6279523;22;45283;-73
2023/03/26 16:41:18;;;;;;;;;2.00;2.00;;;;;11.64;60.45;100309.66;6279598;22;45179;-72
2023/03/26 16:43:48;;;;;;;;;5.00;5.00;;;;;11.60;62.93;100315.81;6280145;22;45138;-73
2023/03/26 16:46:23;;;;;;;;;3.00;2.00;;;;;11.67;60.75;100337.06;6278141;22;46622;-72
2023/03/26 16:49:01;;;;;;;;;3.00;1.75;;;;;11.64;62.37;100341.44;6276123;22;46826;-72
2023/03/26 16:51:33;;;;;;;;;2.75;1.00;;;;;11.56;62.70;100331.63;6277508;22;45225;-72
2023/03/26 16:54:26;;;;;;;;;2.25;2.00;;;;;11.64;61.67;100346.72;6279599;22;45224;-72
2023/03/26 16:56:58;;;;;;;;;4.00;2.75;;;;;11.54;61.98;100339.56;6279430;22;45261;-72
2023/03/26 16:59:48;;;;;;;;;1.00;1.00;;;;;11.58;62.47;100353.72;6279600;22;45367;-72
2023/03/26 17:02:47;;;;;;;;;6.00;3.00;;;;;11.52;62.70;100373.06;6279152;22;45202;-72
2023/03/26 17:05:36;;;;;;;;;1.00;1.00;;;;;11.47;61.85;100381.78;6279978;22;45285;-72
2023/03/26 17:08:29;;;;;;;;;2.75;1.50;;;;;11.47;61.84;100382.69;6279075;22;45463;-72
2023/03/26 17:11:17;;;;;;;;;1.00;1.00;;;;;11.39;62.91;100385.22;6279582;22;46562;-72
2023/03/26 17:13:59;;;;;;;;;1.00;1.00;;;;;11.18;63.83;100371.69;6279859;22;45233;-72
2023/03/26 17:16:45;;;;;;;;;1.75;0.00;;;;;11.15;63.47;100384.88;6277721;22;45286;-73
2023/03/26 17:19:16;;;;;;;;;1.00;1.00;;;;;11.25;62.26;100407.06;6276981;22;47366;-73
2023/03/26 17:22:04;;;;;;;;;2.75;2.75;;;;;11.24;62.38;100411.47;6279289;22;45438;-73
2023/03/26 17:24:44;;;;;;;;;2.25;2.00;;;;;11.11;62.13;100407.72;6277494;22;44681;-73
2023/03/26 17:27:27;;;;;;;;;40.50;36.75;;;;;11.12;62.26;100428.03;6277805;22;45157;-73
2023/03/26 17:30:43;;;;;;;;;10.00;7.75;;;;;10.87;61.39;100394.13;6275542;22;46057;-73
2023/03/26 17:33:18;;;;;;;;;6.00;5.00;;;;;11.08;61.17;100447.34;6277183;22;45647;-73
2023/03/26 17:35:47;;;;;;;;;3.00;3.00;;;;;10.98;61.67;100438.38;6275674;22;45457;-74
2023/03/26 17:38:15;;;;;;;;;2.00;1.50;;;;;11.01;61.21;100457.78;6275976;22;45273;-73
2023/03/26 17:40:57;;;;;;;;;4.75;4.50;;;;;10.86;60.82;100456.66;6277810;22;45489;-73
2023/03/26 17:43:44;;;;;;;;;3.75;3.75;;;;;10.75;60.78;100451.22;6277455;22;45240;-73
2023/03/26 17:46:09;;;;;;;;;1.50;1.50;;;;;10.86;62.00;100482.22;6277612;22;45294;-73
2023/03/26 17:48:40;;;;;;;;;3.50;1.50;;;;;10.74;61.01;100482.91;6276774;22;45488;-73
2023/03/26 17:51:39;;;;;;;;;1.00;1.00;;;;;10.77;61.13;100493.53;6275976;22;46020;-73
2023/03/26 17:54:17;;;;;;;;;5.25;5.25;;;;;10.68;61.73;100496.00;6277913;22;45618;-73
2023/03/26 17:56:45;;;;;;;;;3.25;3.25;;;;;10.70;61.52;100500.47;6277681;22;45164;-73
2023/03/26 17:59:21;;;;;;;;;3.00;3.00;;;;;10.56;61.46;100494.03;6275962;22;45178;-73
2023/03/26 18:01:51;;;;;;;;;26.00;23.00;;;;;10.67;61.75;100528.56;6277598;22;45319;-73
2023/03/26 18:04:24;;;;;;;;;5.25;4.50;;;;;10.49;61.47;100502.69;6277238;22;45325;-73
2023/03/26 18:07:10;;;;;;;;;5.25;2.00;;;;;10.60;60.60;100524.94;6277355;22;45284;-73
2023/03/26 18:09:42;;;;;;;;;4.00;3.75;;;;;10.59;60.58;100532.84;6277123;22;45255;-73
2023/03/26 18:12:16;;;;;;;;;3.25;2.00;;;;;10.56;60.94;100536.31;6277783;22;45280;-73
2023/03/26 18:14:51;;;;;;;;;1.25;1.25;;;;;10.52;61.09;100552.94;6275384;22;47190;-73
2023/03/26 18:17:16;;;;;;;;;3.50;3.25;;;;;10.40;60.67;100539.50;6277255;22;45251;-73
2023/03/26 18:19:53;;;;;;;;;2.00;0.75;;;;;10.50;60.08;100562.59;6277804;22;45303;-73
2023/03/26 18:22:27;;;;;;;;;13.25;11.00;;;;;10.26;60.87;100537.41;6277307;22;45585;-73
2023/03/26 18:24:58;;;;;;;;;0.50;0.50;;;;;10.44;60.55;100579.22;6277339;22;45262;-73
2023/03/26 18:27:31;;;;;;;;;1.00;0.00;;;;;10.21;60.35;100548.75;6277052;22;45406;-73
2023/03/26 18:29:59;;;;;;;;;4.50;4.00;;;;;10.40;61.40;100600.28;6277636;22;45228;-73
2023/03/26 18:32:29;;;;;;;;;1.50;1.00;;;;;10.38;60.50;100608.16;6276681;22;45239;-73
2023/03/26 18:35:00;;;;;;;;;2.00;2.00;;;;;10.25;60.39;100593.75;6300891;22;48322;-73
2023/03/26 18:37:30;;;;;;;;;3.75;1.50;;;;;10.25;60.78;100609.59;6277654;22;45252;-73
2023/03/26 18:40:01;;;;;;;;;3.00;3.00;;;;;10.19;60.52;100608.56;6275847;22;45353;-73
2023/03/26 18:42:30;;;;;;;;;13.25;11.00;;;;;10.17;61.32;100627.03;6277409;22;45109;-74
2023/03/26 18:44:57;;;;;;;;;6.00;6.00;;;;;10.13;62.22;100625.16;6275444;22;47282;-73
2023/03/26 18:47:23;;;;;;;;;13.00;12.25;;;;;10.11;60.51;100625.97;6275033;22;45124;-72
2023/03/26 18:49:53;;;;;;;;;12.00;11.75;;;;;10.10;61.44;100640.94;6277068;22;45203;-73
2023/03/26 18:52:20;;;;;;;;;11.75;6.50;;;;;10.00;61.11;100624.00;6277385;22;45292;-72
2023/03/26 18:54:49;;;;;;;;;2.00;2.00;;;;;9.99;61.57;100632.75;6275727;22;46640;-73
2023/03/26 18:57:21;;;;;;;;;4.75;4.75;;;;;10.15;62.72;100676.28;6277639;22;45226;-72
2023/03/26 18:59:50;;;;;;;;;26.75;24.50;;;;;10.18;61.46;100681.63;6275694;22;45258;-73
2023/03/26 19:02:16;;;;;;;;;3.00;2.50;;;;;10.05;62.02;100668.97;6277184;22;45215;-73
2023/03/26 19:04:44;;;;;;;;;5.25;3.00;;;;;10.08;62.18;100679.63;6275187;22;47093;-73
2023/03/26 19:07:13;;;;;;;;;2.00;2.00;;;;;10.07;62.24;100684.00;6277399;22;45931;-73
2023/03/26 19:09:40;;;;;;;;;4.00;2.75;;;;;10.12;62.72;100713.19;6277333;22;45197;-73
2023/03/26 19:12:15;;;;;;;;;3.00;3.00;;;;;10.11;62.24;100699.91;6277511;22;45170;-73
2023/03/26 19:14:53;;;;;;;;;30.75;29.00;;;;;10.06;62.07;100703.38;6277625;22;45179;-73
2023/03/26 19:17:19;;;;;;;;;11.75;9.25;;;;;9.92;62.34;100686.28;6275059;22;45264;-72
2023/03/26 19:19:45;;;;;;;;;6.00;3.00;;;;;10.05;62.36;100713.88;6277824;22;45264;-73
2023/03/26 19:22:10;;;;;;;;;3.00;3.00;;;;;9.91;61.49;100691.50;6277705;22;45212;-72
2023/03/26 19:24:36;;;;;;;;;5.00;5.00;;;;;9.96;62.31;100711.00;6277701;22;45546;-73
2023/03/26 19:27:02;;;;;;;;;1.75;1.75;;;;;9.97;63.54;100728.63;6277648;22;45290;-73
2023/03/26 19:29:31;;;;;;;;;5.50;4.00;;;;;9.94;63.06;100720.63;6275359;22;45391;-73
2023/03/26 19:32:14;;;;;;;;;3.75;3.75;;;;;9.99;62.87;100740.13;6276847;22;45227;-73
2023/03/26 19:34:40;;;;;;;;;2.75;2.75;;;;;9.93;62.27;100742.63;6277263;22;45097;-73
2023/03/26 19:37:23;;;;;;;;;6.50;6.25;;;;;9.94;63.00;100766.44;6277333;22;45130;-73
2023/03/26 19:40:00;;;;;;;;;5.00;4.00;;;;;9.90;62.02;100766.31;6275554;22;45186;-73
2023/03/26 19:42:30;;;;;;;;;4.50;3.50;;;;;9.81;63.32;100767.84;6277055;22;45109;-72
2023/03/26 19:44:58;;;;;;;;;4.50;3.00;;;;;9.82;62.57;100774.00;6275141;22;48231;-73
2023/03/26 19:47:29;;;;;;;;;4.50;3.75;;;;;9.81;64.88;100782.78;6276407;22;45259;-73
2023/03/26 19:50:01;;;;;;;;;4.00;3.75;;;;;9.98;63.76;100813.19;6276988;22;45267;-73
2023/03/26 19:52:37;;;;;;;;;9.50;7.50;;;;;9.77;62.84;100786.19;6276893;22;45596;-73
2023/03/26 19:55:05;;;;;;;;;8.50;6.75;;;;;9.98;64.88;100820.22;6277283;22;45340;-73
2023/03/26 19:57:35;;;;;;;;;13.50;11.00;;;;;9.53;64.30;100750.38;6277189;22;45203;-73
2023/03/26 20:00:03;;;;;;;;;9.50;9.00;;;;;9.87;63.98;100819.91;6275569;22;45226;-73
2023/03/26 20:02:29;;;;;;;;;11.75;9.00;;;;;9.92;64.47;100842.06;6274348;22;45307;-73
2023/03/26 20:04:54;;;;;;;;;9.50;9.25;;;;;9.46;64.50;100771.25;6300634;22;45266;-73
2023/03/26 20:07:25;;;;;;;;;12.50;10.00;;;;;9.90;65.38;100853.44;6276395;22;45282;-73
2023/03/26 20:09:51;;;;;;;;;9.75;8.75;;;;;9.83;65.74;100853.25;6277603;22;45154;-72
2023/03/26 20:12:17;;;;;;;;;11.00;11.00;;;;;9.73;63.62;100843.28;6276948;22;45216;-73
2023/03/26 20:14:44;;;;;;;;;10.75;9.00;;;;;9.81;64.12;100860.25;6274882;22;47042;-75
2023/03/26 20:17:17;;;;;;;;;14.25;12.25;;;;;9.85;65.47;100877.94;6276775;22;45301;-73
2023/03/26 20:19:44;;;;;;;;;16.00;12.00;;;;;9.77;64.78;100870.66;6277332;22;45300;-73
2023/03/26 20:22:14;;;;;;;;;11.00;10.25;;;;;9.83;65.00;100892.88;6277246;22;45196;-73
2023/03/26 20:24:41;;;;;;;;;13.00;12.25;;;;;9.71;64.43;100887.22;6276804;22;46072;-73
2023/03/26 20:27:06;;;;;;;;;10.00;10.00;;;;;9.59;65.38;100876.31;6277005;22;45226;-72
2023/03/26 20:29:32;;;;;;;;;14.75;13.75;;;;;9.43;65.60;100848.56;6274971;22;45170;-73
2023/03/26 20:31:57;;;;;;;;;8.00;8.00;;;;;9.56;64.59;100890.31;6276804;22;45275;-74
2023/03/26 20:34:23;;;;;;;;;15.25;10.00;;;;;9.57;64.23;100896.47;6274334;22;47481;-74
2023/03/26 20:36:56;;;;;;;;;11.00;11.00;;;;;9.33;64.70;100871.16;6277455;22;44680;-73
2023/03/26 20:39:24;;;;;;;;;16.75;10.50;;;;;9.59;64.05;100937.00;6277315;22;45101;-74
2023/03/26 20:41:51;;;;;;;;;11.50;11.50;;;;;9.69;64.12;100961.91;6276881;22;45247;-74
2023/03/26 20:44:18;;;;;;;;;21.75;18.50;;;;;9.67;64.25;100959.25;6276671;22;45270;-74
2023/03/26 20:46:45;;;;;;;;;9.50;6.75;;;;;9.59;64.80;100950.19;6274680;22;45257;-74
2023/03/26 20:49:11;;;;;;;;;9.50;9.00;;;;;9.58;64.95;100961.63;6273971;22;45245;-74
2023/03/26 20:51:37;;;;;;;;;10.50;8.00;;;;;9.47;64.40;100955.13;6274890;22;45177;-73
2023/03/26 20:54:06;;;;;;;;;11.00;6.00;;;;;9.41;63.53;100961.97;6276379;22;45310;-73
2023/03/26 20:56:36;;;;;;;;;11.00;6.00;;;;;9.38;64.69;100967.16;6276854;22;45279;-73
2023/03/26 20:59:02;;;;;;;;;12.50;9.00;;;;;9.35;63.84;100972.34;6277646;22;45211;-73
2023/03/26 21:01:27;;;;;;;;;12.25;7.00;;;;;9.22;63.89;100966.63;6277590;22;45459;-73
2023/03/26 21:03:53;;;;;;;;;10.00;6.25;;;;;9.32;63.82;101003.88;6275324;22;45826;-73
2023/03/26 21:06:18;;;;;;;;;9.75;8.00;;;;;9.32;63.38;101027.63;6278340;22;45145;-73
2023/03/26 21:08:44;;;;;;;;;5.25;4.75;;;;;9.31;64.17;101035.50;6275181;22;45406;-73
2023/03/26 21:11:18;;;;;;;;;10.75;9.00;;;;;9.24;63.01;101047.56;6275938;22;45856;-73
2023/03/26 21:13:52;;;;;;;;;8.00;5.00;;;;;9.04;63.25;101024.91;6275729;22;46733;-73
2023/03/26 21:16:17;;;;;;;;;8.75;7.00;;;;;8.86;63.04;101023.44;6275994;22;45847;-73
2023/03/26 21:18:43;;;;;;;;;11.50;3.50;;;;;9.02;62.49;101074.97;6277669;22;45279;-73
2023/03/26 21:21:33;;;;;;;;;7.50;4.00;;;;;8.94;62.48;101076.44;6278371;22;45425;-73
2023/03/26 21:24:24;;;;;;;;;8.25;6.00;;;;;8.67;62.31;101064.06;6277933;22;46219;-73
2023/03/26 21:27:07;;;;;;;;;6.75;6.50;;;;;8.56;62.75;101057.50;6277792;22;45282;-73
2023/03/26 21:29:32;;;;;;;;;8.00;5.50;;;;;8.70;62.49;101103.69;6276091;22;45236;-72
2023/03/26 21:31:59;;;;;;;;;11.75;11.00;;;;;8.66;62.64;101116.72;6275560;22;45306;-73
